Time;durP1;ratioP1;P1;durP2;ratioP2;P2;SDS_P1;SDS_P2;PMS_P1;PMS_P2;Temp;Humidity;BMP_temperature;BMP_pressure;BME280_temperature;BME280_humidity;BME280_pressure;Samples;Min_cycle;Max_cycle;Signal;HPM_P1;HPM_P2
2023/05/04 00:02:21;;;;;;;1.42;1.27;;;16.90;83.10;;;;;;6155172;23;20364;-78
2023/05/04 00:04:47;;;;;;;4.20;1.55;;;16.90;83.20;;;;;;6156615;23;20471;-78
2023/05/04 00:07:13;;;;;;;1.65;1.55;;;16.90;82.90;;;;;;6155520;23;20101;-78
2023/05/04 00:09:38;;;;;;;1.48;1.13;;;16.90;82.90;;;;;;6156618;23;20005;-77
2023/05/04 00:12:04;;;;;;;3.00;1.20;;;16.90;83.20;;;;;;6156653;23;20316;-79
2023/05/04 00:14:30;;;;;;;2.28;1.00;;;16.90;83.20;;;;;;6156657;23;20080;-79
2023/05/04 00:16:56;;;;;;;2.15;1.40;;;16.90;83.20;;;;;;6130046;23;20108;-79
2023/05/04 00:19:21;;;;;;;2.45;1.30;;;16.90;83.30;;;;;;6156528;23;20073;-78
2023/05/04 00:21:47;;;;;;;1.75;1.20;;;16.80;82.70;;;;;;6156569;23;20427;-79
2023/05/04 00:24:13;;;;;;;1.48;1.13;;;16.80;82.80;;;;;;6156428;23;20393;-79
2023/05/04 00:26:38;;;;;;;2.00;1.20;;;16.80;83.00;;;;;;6155516;23;20008;-79
2023/05/04 00:29:04;;;;;;;2.90;1.30;;;16.80;83.20;;;;;;6130308;23;20006;-79
2023/05/04 00:31:30;;;;;;;1.50;1.27;;;16.80;83.30;;;;;;6156245;23;20550;-79
2023/05/04 00:33:55;;;;;;;1.60;1.40;;;16.80;83.50;;;;;;6155836;23;20104;-79
2023/05/04 00:36:21;;;;;;;2.42;1.48;;;16.80;83.30;;;;;;6155395;23;20001;-79
2023/05/04 00:38:51;;;;;;;1.95;1.50;;;16.80;83.40;;;;;;6155688;23;20058;-79
2023/05/04 00:41:18;;;;;;;1.60;1.25;;;16.80;83.30;;;;;;6155472;23;20008;-79
2023/05/04 00:43:44;;;;;;;1.50;1.30;;;16.80;83.50;;;;;;6156203;23;20064;-79
2023/05/04 00:46:10;;;;;;;1.85;1.60;;;16.70;83.80;;;;;;6154982;23;20423;-79
2023/05/04 00:48:38;;;;;;;1.63;1.20;;;16.70;83.80;;;;;;6129926;23;20006;-77
2023/05/04 00:51:04;;;;;;;3.83;1.27;;;16.70;84.00;;;;;;6154592;23;20345;-76
2023/05/04 00:53:30;;;;;;;4.28;1.50;;;16.70;84.10;;;;;;6156216;23;20077;-76
2023/05/04 00:55:57;;;;;;;4.18;1.55;;;16.60;84.10;;;;;;6154692;23;20032;-76
2023/05/04 00:58:23;;;;;;;1.63;1.45;;;16.60;84.10;;;;;;6154984;23;20013;-76
2023/05/04 01:00:50;;;;;;;2.10;1.20;;;16.60;84.20;;;;;;6155509;23;20080;-76
2023/05/04 01:03:16;;;;;;;1.92;1.23;;;16.60;84.40;;;;;;6155727;23;20025;-76
2023/05/04 01:05:53;;;;;;;1.75;1.23;;;16.60;84.70;;;;;;6155152;23;20048;-77
2023/05/04 01:08:23;;;;;;;1.75;1.35;;;16.60;84.50;;;;;;6155409;23;19997;-77
2023/05/04 01:10:55;;;;;;;3.38;1.60;;;16.60;84.40;;;;;;6128668;23;20005;-77
2023/05/04 01:13:21;;;;;;;2.22;1.30;;;16.50;84.00;;;;;;6155872;23;20033;-77
2023/05/04 01:15:48;;;;;;;2.10;1.25;;;16.50;84.00;;;;;;6155668;23;20009;-77
2023/05/04 01:18:15;;;;;;;3.60;1.65;;;16.40;84.00;;;;;;6155042;23;20775;-77
2023/05/04 01:20:41;;;;;;;7.20;1.75;;;16.40;84.10;;;;;;6155986;23;20002;-77
2023/05/04 01:23:07;;;;;;;2.42;1.42;;;16.40;84.30;;;;;;6155437;23;20002;-77
2023/05/04 01:25:54;;;;;;;5.72;1.70;;;16.40;84.40;;;;;;6154217;23;19999;-78
2023/05/04 01:28:32;;;;;;;1.85;1.30;;;16.40;84.60;;;;;;6154585;23;20064;-77
2023/05/04 01:30:59;;;;;;;4.32;1.83;;;16.40;84.80;;;;;;6129654;23;20017;-77
2023/05/04 01:33:27;;;;;;;2.03;1.58;;;16.40;85.00;;;;;;6155180;23;20033;-77
2023/05/04 01:35:53;;;;;;;1.45;1.23;;;16.40;85.00;;;;;;6155245;23;20079;-77
2023/05/04 01:38:19;;;;;;;2.30;1.40;;;16.30;84.90;;;;;;6154538;23;20009;-76
2023/05/04 01:40:45;;;;;;;1.98;1.48;;;16.30;84.90;;;;;;6155864;23;20329;-77
2023/05/04 01:43:10;;;;;;;2.30;1.40;;;16.30;84.80;;;;;;6155479;23;19998;-76
2023/05/04 01:45:36;;;;;;;1.67;1.10;;;16.30;84.90;;;;;;6155433;23;20029;-76
2023/05/04 01:48:02;;;;;;;3.47;1.30;;;16.30;84.80;;;;;;6154995;23;20011;-77
2023/05/04 01:50:27;;;;;;;1.58;1.10;;;16.30;84.60;;;;;;6154989;23;20404;-77
2023/05/04 01:52:53;;;;;;;1.63;1.25;;;16.30;84.20;;;;;;6155676;23;20428;-77
2023/05/04 01:55:19;;;;;;;1.83;1.38;;;16.20;84.10;;;;;;6155229;23;20009;-77
2023/05/04 01:57:44;;;;;;;1.67;1.10;;;16.20;84.10;;;;;;6155155;23;20512;-77
2023/05/04 02:00:10;;;;;;;1.42;1.30;;;16.20;84.10;;;;;;6154666;23;20005;-77
2023/05/04 02:02:36;;;;;;;1.85;1.48;;;16.10;84.30;;;;;;6155437;23;20001;-77
2023/05/04 02:05:02;;;;;;;2.15;1.35;;;16.20;84.30;;;;;;6155614;23;20008;-77
2023/05/04 02:07:27;;;;;;;1.45;1.10;;;16.20;84.30;;;;;;6155015;23;20075;-76
2023/05/04 02:09:53;;;;;;;1.45;1.13;;;16.20;84.40;;;;;;6155575;23;20008;-76
2023/05/04 02:12:19;;;;;;;2.40;1.25;;;16.10;85.00;;;;;;6154925;23;20035;-76
2023/05/04 02:14:45;;;;;;;1.10;1.00;;;16.20;84.70;;;;;;6154767;23;20052;-76
2023/05/04 02:17:10;;;;;;;2.40;1.55;;;16.10;84.60;;;;;;6155116;23;20052;-76
2023/05/04 02:19:36;;;;;;;1.25;1.02;;;16.10;84.80;;;;;;6155145;23;20355;-76
2023/05/04 02:22:04;;;;;;;1.17;1.02;;;16.10;84.80;;;;;;6155587;23;20012;-76
2023/05/04 02:24:31;;;;;;;1.30;1.10;;;16.10;84.80;;;;;;6154693;23;20044;-76
2023/05/04 02:26:57;;;;;;;1.52;1.10;;;16.00;84.90;;;;;;6154390;23;20155;-76
2023/05/04 02:29:23;;;;;;;1.50;1.30;;;16.00;85.00;;;;;;6155171;23;20002;-76
2023/05/04 02:31:48;;;;;;;2.90;1.40;;;16.00;85.00;;;;;;6155557;23;20001;-76
2023/05/04 02:34:14;;;;;;;1.63;1.27;;;16.00;85.00;;;;;;6154201;23;20064;-76
2023/05/04 02:36:40;;;;;;;2.30;1.30;;;16.00;85.10;;;;;;6155092;23;19998;-76
2023/05/04 02:39:05;;;;;;;1.75;1.58;;;16.00;85.00;;;;;;6154379;23;20013;-76
2023/05/04 02:41:31;;;;;;;2.25;1.40;;;15.90;85.00;;;;;;6154992;23;20002;-76
2023/05/04 02:43:57;;;;;;;2.05;1.42;;;15.90;85.20;;;;;;6128384;23;20008;-76
2023/05/04 02:46:24;;;;;;;1.55;1.42;;;15.80;85.30;;;;;;6154231;23;20412;-76
2023/05/04 02:48:49;;;;;;;1.58;1.30;;;15.80;85.30;;;;;;6153800;23;20006;-77
2023/05/04 02:51:15;;;;;;;2.22;1.40;;;15.80;85.40;;;;;;6155189;23;20095;-76
2023/05/04 02:53:41;;;;;;;2.15;1.40;;;15.80;85.50;;;;;;6154751;23;20002;-76
2023/05/04 02:56:06;;;;;;;2.08;1.50;;;15.80;85.90;;;;;;6154833;23;20009;-76
2023/05/04 02:58:32;;;;;;;1.73;1.42;;;15.80;86.00;;;;;;6128197;23;20092;-76
2023/05/04 03:01:01;;;;;;;2.45;1.23;;;15.80;86.00;;;;;;6129163;23;20001;-76
2023/05/04 03:03:26;;;;;;;1.92;1.48;;;15.80;86.00;;;;;;6156696;23;19997;-76
2023/05/04 03:05:52;;;;;;;1.40;1.30;;;15.80;86.00;;;;;;6157434;23;20044;-75
2023/05/04 03:08:18;;;;;;;1.70;1.40;;;15.70;85.90;;;;;;6155768;23;20048;-76
2023/05/04 03:10:43;;;;;;;1.98;1.48;;;15.70;86.10;;;;;;6156442;23;20309;-75
2023/05/04 03:13:09;;;;;;;2.05;1.35;;;15.70;86.20;;;;;;6157124;23;20040;-76
2023/05/04 03:15:35;;;;;;;1.70;1.42;;;15.70;86.30;;;;;;6156724;23;20010;-75
2023/05/04 03:18:00;;;;;;;2.65;1.30;;;15.60;86.10;;;;;;6156760;23;20013;-76
2023/05/04 03:20:27;;;;;;;2.40;1.50;;;15.60;86.00;;;;;;6156126;23;20006;-75
2023/05/04 03:22:53;;;;;;;1.50;1.40;;;15.50;86.10;;;;;;6156677;23;20028;-76
2023/05/04 03:25:18;;;;;;;2.65;1.40;;;15.50;86.30;;;;;;6157260;23;20393;-75
2023/05/04 03:27:44;;;;;;;2.85;1.80;;;15.50;86.30;;;;;;6156419;23;20448;-75
2023/05/04 03:30:11;;;;;;;2.90;1.42;;;15.50;86.30;;;;;;6156866;23;20009;-76
2023/05/04 03:32:36;;;;;;;2.88;1.60;;;15.50;86.30;;;;;;6156621;23;20010;-76
2023/05/04 03:35:03;;;;;;;2.08;1.60;;;15.40;86.20;;;;;;6156696;23;20340;-76
2023/05/04 03:37:28;;;;;;;2.72;1.60;;;15.40;86.40;;;;;;6155969;23;20006;-75
2023/05/04 03:39:54;;;;;;;1.70;1.60;;;15.30;86.40;;;;;;6156722;23;20332;-75
2023/05/04 03:42:20;;;;;;;2.25;1.85;;;15.30;86.40;;;;;;6155936;23;20029;-75
2023/05/04 03:44:46;;;;;;;1.95;1.70;;;15.40;86.60;;;;;;6156366;23;20002;-76
2023/05/04 03:47:11;;;;;;;1.52;1.42;;;15.40;86.50;;;;;;6155919;23;20012;-76
2023/05/04 03:49:37;;;;;;;2.38;1.67;;;15.40;86.50;;;;;;6155670;23;20336;-76
2023/05/04 03:52:03;;;;;;;3.00;1.70;;;15.30;86.40;;;;;;6155995;23;20002;-75
2023/05/04 03:54:28;;;;;;;2.25;1.60;;;15.30;86.50;;;;;;6156005;23;20656;-75
2023/05/04 03:56:54;;;;;;;2.58;1.80;;;15.30;86.50;;;;;;6129920;23;20041;-76
2023/05/04 03:59:20;;;;;;;3.83;2.35;;;15.20;86.50;;;;;;6155957;23;19998;-76
2023/05/04 04:01:45;;;;;;;2.55;1.73;;;15.20;86.70;;;;;;6156371;23;20004;-75
2023/05/04 04:04:11;;;;;;;9.10;1.98;;;15.30;86.70;;;;;;6157005;23;20001;-75
2023/05/04 04:06:37;;;;;;;2.60;2.10;;;15.20;86.70;;;;;;6155580;23;20002;-75
2023/05/04 04:09:02;;;;;;;3.83;2.00;;;15.30;86.80;;;;;;6156322;23;20037;-76
2023/05/04 04:11:28;;;;;;;4.57;2.00;;;15.30;86.80;;;;;;6129518;23;20006;-76
2023/05/04 04:13:54;;;;;;;2.10;1.90;;;15.30;86.80;;;;;;6155963;23;20044;-76
2023/05/04 04:16:20;;;;;;;2.42;1.92;;;15.30;86.80;;;;;;6155520;23;20086;-77
2023/05/04 04:18:46;;;;;;;3.78;1.63;;;15.30;87.00;;;;;;6155116;23;20005;-77
2023/05/04 04:21:12;;;;;;;2.28;1.80;;;15.30;87.20;;;;;;6156172;23;20447;-76
2023/05/04 04:23:37;;;;;;;1.90;1.70;;;15.30;87.20;;;;;;6129719;23;20009;-76
2023/05/04 04:26:05;;;;;;;3.25;1.88;;;15.30;87.20;;;;;;6128712;23;20052;-77
2023/05/04 04:28:32;;;;;;;3.80;2.20;;;15.30;87.20;;;;;;6155597;23;20352;-76
2023/05/04 04:30:58;;;;;;;3.47;2.28;;;15.30;87.30;;;;;;6130243;23;20062;-83
2023/05/04 04:33:24;;;;;;;3.72;2.03;;;15.30;87.60;;;;;;6156596;23;20004;-84
2023/05/04 04:35:50;;;;;;;4.07;2.42;;;15.30;87.80;;;;;;6155765;23;20006;-84
2023/05/04 04:38:16;;;;;;;3.42;2.20;;;15.30;87.80;;;;;;6129888;23;20010;-83
2023/05/04 04:40:42;;;;;;;2.85;2.00;;;15.30;87.80;;;;;;6155487;23;20040;-84
2023/05/04 04:43:08;;;;;;;2.00;1.70;;;15.30;87.90;;;;;;6155151;23;19998;-86
2023/05/04 04:45:34;;;;;;;3.55;2.05;;;15.30;88.00;;;;;;6155565;23;20001;-86
2023/05/04 04:48:00;;;;;;;4.07;1.90;;;15.30;88.30;;;;;;6156877;23;20033;-86
2023/05/04 04:50:27;;;;;;;4.25;1.90;;;15.30;88.70;;;;;;6154832;23;20001;-84
2023/05/04 04:52:53;;;;;;;2.17;1.83;;;15.30;88.50;;;;;;6153730;23;20066;-84
2023/05/04 04:55:19;;;;;;;5.50;2.20;;;15.30;88.50;;;;;;6155503;23;20025;-82
2023/05/04 04:57:45;;;;;;;3.47;2.25;;;15.30;88.50;;;;;;6153673;23;20094;-83
2023/05/04 05:00:13;;;;;;;4.18;2.03;;;15.30;88.40;;;;;;6155163;23;20016;-84
2023/05/04 05:02:39;;;;;;;5.70;2.25;;;15.30;88.40;;;;;;6156049;23;20009;-78
2023/05/04 05:05:05;;;;;;;2.95;2.25;;;15.20;88.30;;;;;;6155249;23;20005;-77
2023/05/04 05:07:31;;;;;;;5.65;2.40;;;15.20;88.40;;;;;;6155597;23;20298;-81
2023/05/04 05:09:57;;;;;;;4.85;2.38;;;15.30;88.50;;;;;;6154867;23;20036;-78
2023/05/04 05:12:23;;;;;;;3.78;2.75;;;15.30;88.30;;;;;;6154600;23;20006;-79
2023/05/04 05:14:49;;;;;;;3.40;2.50;;;15.30;88.40;;;;;;6155526;23;20005;-78
2023/05/04 05:17:15;;;;;;;4.10;2.25;;;15.40;88.50;;;;;;6155414;23;20092;-78
2023/05/04 05:19:41;;;;;;;2.95;2.33;;;15.40;88.40;;;;;;6152153;23;20323;-78
2023/05/04 05:22:07;;;;;;;5.15;2.20;;;15.50;88.10;;;;;;6128445;23;20036;-78
2023/05/04 05:24:33;;;;;;;4.30;2.47;;;15.50;87.90;;;;;;6152833;23;20729;-78
2023/05/04 05:26:59;;;;;;;4.90;2.67;;;15.60;87.70;;;;;;6154160;23;20025;-78
2023/05/04 05:29:25;;;;;;;4.90;2.97;;;15.60;87.80;;;;;;6152688;23;20009;-78
2023/05/04 05:31:50;;;;;;;3.45;2.50;;;15.60;87.90;;;;;;6154996;23;20537;-78
2023/05/04 05:34:16;;;;;;;2.95;2.28;;;15.60;87.90;;;;;;6155309;23;20016;-77
2023/05/04 05:36:43;;;;;;;4.55;2.80;;;15.70;88.30;;;;;;6154728;23;20018;-77
2023/05/04 05:39:10;;;;;;;3.45;2.47;;;15.80;88.20;;;;;;6155509;23;20002;-77
2023/05/04 05:41:36;;;;;;;3.05;2.50;;;15.80;88.00;;;;;;6155458;23;20300;-77
2023/05/04 05:44:01;;;;;;;3.13;2.47;;;15.90;87.80;;;;;;6154960;23;20005;-78
2023/05/04 05:46:27;;;;;;;6.68;2.10;;;15.90;87.80;;;;;;6155179;23;19998;-82
2023/05/04 05:48:53;;;;;;;3.83;2.75;;;16.00;87.40;;;;;;6156079;23;20092;-82
2023/05/04 05:51:19;;;;;;;3.13;2.42;;;16.00;87.10;;;;;;6153000;23;20005;-83
2023/05/04 05:53:45;;;;;;;3.13;1.92;;;16.10;87.00;;;;;;6155792;23;20009;-82
2023/05/04 05:56:11;;;;;;;2.40;1.92;;;16.10;86.70;;;;;;6129789;23;20006;-82
2023/05/04 05:58:38;;;;;;;3.10;2.17;;;16.20;86.20;;;;;;6156528;23;20056;-82
2023/05/04 06:01:04;;;;;;;3.58;2.33;;;16.20;86.10;;;;;;6155867;23;20056;-82
2023/05/04 06:03:30;;;;;;;2.08;1.83;;;16.30;85.90;;;;;;6156033;23;20010;-83
2023/05/04 06:05:56;;;;;;;3.33;2.22;;;16.30;85.50;;;;;;6128835;23;20017;-82
2023/05/04 06:08:21;;;;;;;2.67;1.73;;;16.40;85.30;;;;;;6155481;23;20005;-82
2023/05/04 06:10:48;;;;;;;4.60;2.00;;;16.40;85.20;;;;;;6155964;23;20085;-84
2023/05/04 06:13:14;;;;;;;2.10;1.90;;;16.40;86.20;;;;;;6157153;23;20170;-80
2023/05/04 06:15:40;;;;;;;2.20;1.98;;;16.60;85.20;;;;;;6161289;23;20088;-82
2023/05/04 06:18:06;;;;;;;2.45;2.00;;;16.60;85.00;;;;;;6155150;23;20040;-81
2023/05/04 06:20:31;;;;;;;3.55;2.28;;;16.70;84.90;;;;;;6129479;23;20060;-81
2023/05/04 06:22:57;;;;;;;2.85;1.98;;;16.70;84.60;;;;;;6155901;23;20323;-84
2023/05/04 06:25:23;;;;;;;3.35;2.05;;;16.70;84.10;;;;;;6155367;23;20005;-81
2023/05/04 06:27:48;;;;;;;3.50;2.13;;;16.70;84.40;;;;;;6156254;23;20081;-77
2023/05/04 06:30:15;;;;;;;2.55;1.67;;;16.80;84.30;;;;;;6156240;23;20009;-78
2023/05/04 06:32:41;;;;;;;1.92;1.63;;;16.80;84.10;;;;;;6156217;23;20072;-77
2023/05/04 06:35:10;;;;;;;3.67;1.67;;;16.90;84.00;;;;;;6155087;23;20056;-78
2023/05/04 06:37:36;;;;;;;2.45;1.50;;;16.90;83.40;;;;;;6154935;23;20002;-78
2023/05/04 06:40:03;;;;;;;2.40;1.45;;;16.90;83.50;;;;;;6155507;23;20006;-78
2023/05/04 06:42:30;;;;;;;1.90;1.60;;;17.00;83.50;;;;;;6156354;23;20005;-77
2023/05/04 06:44:57;;;;;;;2.80;1.58;;;17.00;82.50;;;;;;6156633;23;20008;-78
2023/05/04 06:47:22;;;;;;;1.73;1.33;;;17.10;83.00;;;;;;6156148;23;20002;-77
2023/05/04 06:49:48;;;;;;;1.65;1.40;;;17.10;82.30;;;;;;6156796;23;20025;-77
2023/05/04 06:52:14;;;;;;;3.90;1.45;;;17.20;81.60;;;;;;6156672;23;20028;-77
2023/05/04 06:54:40;;;;;;;2.45;1.52;;;17.20;81.60;;;;;;6156432;23;20391;-78
2023/05/04 06:57:05;;;;;;;2.03;1.50;;;17.30;81.70;;;;;;6130167;23;20045;-77
2023/05/04 06:59:31;;;;;;;2.28;1.40;;;17.40;81.70;;;;;;6156686;23;20305;-77
2023/05/04 07:01:57;;;;;;;2.45;1.73;;;17.50;81.40;;;;;;6157168;23;20052;-77
2023/05/04 07:04:22;;;;;;;3.30;1.83;;;17.60;81.30;;;;;;6156669;23;20008;-77
2023/05/04 07:06:49;;;;;;;1.83;1.45;;;17.60;81.10;;;;;;6155803;23;20300;-78
2023/05/04 07:09:16;;;;;;;5.80;1.90;;;17.70;80.90;;;;;;6155895;23;20001;-77
2023/05/04 07:11:42;;;;;;;5.65;2.72;;;17.80;80.20;;;;;;6156167;23;20416;-78
2023/05/04 07:14:08;;;;;;;2.50;1.50;;;17.80;79.70;;;;;;6129466;23;20013;-77
2023/05/04 07:16:35;;;;;;;2.50;1.92;;;17.90;80.40;;;;;;6156692;23;20012;-77
2023/05/04 07:19:00;;;;;;;2.08;1.88;;;17.90;80.10;;;;;;6155732;23;20427;-78
2023/05/04 07:21:26;;;;;;;1.83;1.48;;;18.00;80.00;;;;;;6156236;23;20073;-76
2023/05/04 07:23:52;;;;;;;4.55;2.45;;;18.00;79.90;;;;;;6132192;23;20076;-79
2023/05/04 07:26:18;;;;;;;3.05;2.15;;;18.20;80.20;;;;;;6155562;23;20569;-78
2023/05/04 07:28:43;;;;;;;3.95;1.88;;;18.20;80.20;;;;;;6155644;23;20009;-76
2023/05/04 07:31:11;;;;;;;2.42;1.90;;;18.30;79.70;;;;;;6155906;23;20076;-77
2023/05/04 07:33:37;;;;;;;2.30;1.98;;;18.40;78.70;;;;;;6155491;23;20006;-76
2023/05/04 07:36:03;;;;;;;2.10;1.77;;;18.50;78.80;;;;;;6155890;23;20001;-76
2023/05/04 07:38:30;;;;;;;2.50;2.03;;;18.50;77.10;;;;;;6155366;23;20060;-77
2023/05/04 07:40:55;;;;;;;2.08;1.80;;;18.60;76.60;;;;;;6155331;23;20056;-77
2023/05/04 07:43:22;;;;;;;2.00;1.80;;;18.60;75.00;;;;;;6155183;23;20001;-76
2023/05/04 07:45:48;;;;;;;2.20;1.80;;;18.60;76.20;;;;;;6156013;23;20099;-76
2023/05/04 07:48:13;;;;;;;2.05;1.70;;;18.70;76.90;;;;;;6156778;23;20005;-77
2023/05/04 07:50:39;;;;;;;2.70;1.80;;;18.80;77.40;;;;;;6157644;23;20006;-77
2023/05/04 07:53:05;;;;;;;2.75;1.70;;;18.90;77.00;;;;;;6157782;23;20005;-78
2023/05/04 07:55:30;;;;;;;2.42;1.80;;;19.00;76.60;;;;;;6157809;23;20006;-77
2023/05/04 07:57:56;;;;;;;3.85;1.92;;;19.10;76.50;;;;;;6158382;23;20396;-77
2023/05/04 08:00:22;;;;;;;1.98;1.73;;;19.10;76.10;;;;;;6157684;23;20002;-77
2023/05/04 08:02:48;;;;;;;2.88;1.88;;;19.20;76.40;;;;;;6131708;23;20433;-78
2023/05/04 08:05:14;;;;;;;1.92;1.80;;;19.30;74.60;;;;;;6157980;23;20294;-78
2023/05/04 08:07:39;;;;;;;3.75;1.52;;;19.30;74.10;;;;;;6157772;23;20008;-78
2023/05/04 08:10:06;;;;;;;2.33;1.67;;;19.40;75.20;;;;;;6157661;23;20010;-77
2023/05/04 08:12:31;;;;;;;2.65;1.80;;;19.50;74.70;;;;;;6158012;23;20400;-77
2023/05/04 08:14:57;;;;;;;1.92;1.45;;;19.50;72.10;;;;;;6157618;23;20012;-77
2023/05/04 08:17:23;;;;;;;1.98;1.70;;;19.50;72.60;;;;;;6157646;23;20037;-77
2023/05/04 08:19:49;;;;;;;3.58;2.42;;;19.60;73.00;;;;;;6157717;23;20324;-78
2023/05/04 08:22:15;;;;;;;2.55;1.27;;;19.60;70.30;;;;;;6132365;23;20060;-79
2023/05/04 08:24:41;;;;;;;1.80;1.40;;;19.60;72.90;;;;;;6157636;23;20005;-78
2023/05/04 08:27:07;;;;;;;4.72;2.03;;;19.70;73.00;;;;;;6157646;23;20404;-78
2023/05/04 08:29:32;;;;;;;2.15;1.50;;;19.80;72.30;;;;;;6157540;23;20413;-76
2023/05/04 08:31:58;;;;;;;1.27;0.98;;;19.90;72.10;;;;;;6157167;23;20001;-79
2023/05/04 08:34:25;;;;;;;1.77;1.40;;;20.00;73.10;;;;;;6157116;23;20438;-78
2023/05/04 08:36:51;;;;;;;1.63;1.20;;;20.00;73.20;;;;;;6157404;23;20080;-78
2023/05/04 08:39:17;;;;;;;1.30;1.20;;;20.10;73.10;;;;;;6157621;23;20428;-78
2023/05/04 08:41:43;;;;;;;1.45;1.13;;;20.20;71.20;;;;;;6158186;23;20044;-77
2023/05/04 08:44:10;;;;;;;2.97;0.93;;;20.20;71.20;;;;;;6157928;23;20052;-77
2023/05/04 08:46:39;;;;;;;2.28;1.00;;;20.30;73.10;;;;;;6158442;23;20013;-77
2023/05/04 08:49:09;;;;;;;1.73;1.42;;;20.50;71.80;;;;;;6158058;23;20009;-77
2023/05/04 08:51:36;;;;;;;1.77;1.10;;;20.50;72.40;;;;;;6158832;23;20010;-77
2023/05/04 08:54:09;;;;;;;1.10;1.00;;;20.60;72.70;;;;;;6158266;23;20088;-77
2023/05/04 08:56:37;;;;;;;1.50;1.30;;;20.70;72.00;;;;;;6158137;23;20162;-78
2023/05/04 08:59:02;;;;;;;1.58;0.90;;;20.80;71.50;;;;;;6158629;23;20054;-77
2023/05/04 09:01:30;;;;;;;2.67;1.20;;;20.90;70.30;;;;;;6158623;23;20004;-77
2023/05/04 09:03:56;;;;;;;1.88;1.42;;;20.90;69.30;;;;;;6158187;23;20002;-77
2023/05/04 09:06:24;;;;;;;1.58;1.25;;;21.00;70.70;;;;;;6158361;23;20099;-77
2023/05/04 09:08:50;;;;;;;2.97;1.20;;;21.10;70.20;;;;;;6158636;23;20008;-77
2023/05/04 09:11:15;;;;;;;1.13;1.02;;;21.20;69.90;;;;;;6157975;23;20005;-77
2023/05/04 09:13:41;;;;;;;1.25;1.02;;;21.30;69.60;;;;;;6158442;23;20436;-77
2023/05/04 09:16:07;;;;;;;1.77;1.20;;;21.40;70.60;;;;;;6158996;23;20006;-77
2023/05/04 09:18:41;;;;;;;1.38;1.27;;;21.50;70.60;;;;;;6158178;23;20104;-77
2023/05/04 09:21:07;;;;;;;1.20;1.08;;;21.70;69.70;;;;;;6132685;23;20001;-77
2023/05/04 09:23:47;;;;;;;2.65;1.25;;;21.80;69.70;;;;;;6158231;23;19997;-77
2023/05/04 09:26:12;;;;;;;2.20;1.30;;;21.90;69.00;;;;;;6158205;23;20002;-77
2023/05/04 09:28:38;;;;;;;1.77;1.27;;;22.00;69.10;;;;;;6157693;23;20006;-77
2023/05/04 09:31:05;;;;;;;1.77;1.02;;;22.10;68.50;;;;;;6159396;23;20001;-77
2023/05/04 09:33:30;;;;;;;1.65;1.17;;;22.20;68.70;;;;;;6157089;23;20013;-77
2023/05/04 09:35:58;;;;;;;1.50;1.23;;;22.30;68.60;;;;;;6158437;23;20288;-77
2023/05/04 09:38:25;;;;;;;1.70;1.20;;;22.40;68.80;;;;;;6157665;23;20005;-77
2023/05/04 09:40:51;;;;;;;1.65;1.40;;;22.60;68.50;;;;;;6157526;23;20425;-77
2023/05/04 09:43:17;;;;;;;1.50;1.38;;;22.70;68.50;;;;;;6158732;23;20005;-77
2023/05/04 09:45:47;;;;;;;1.98;1.50;;;22.90;68.20;;;;;;6158379;23;20025;-77
2023/05/04 09:48:27;;;;;;;2.17;1.58;;;23.00;68.10;;;;;;6131524;23;20033;-77
2023/05/04 09:50:58;;;;;;;2.83;1.23;;;23.10;68.10;;;;;;6158580;23;20006;-76
2023/05/04 09:53:28;;;;;;;3.30;1.30;;;23.20;67.90;;;;;;6158585;23;20017;-76
2023/05/04 09:56:13;;;;;;;2.00;1.27;;;23.40;67.50;;;;;;6158060;23;20005;-77
2023/05/04 09:58:41;;;;;;;2.13;1.23;;;23.60;67.50;;;;;;6159328;23;20005;-77
2023/05/04 10:01:15;;;;;;;1.35;1.25;;;23.70;67.10;;;;;;6138220;23;20002;-76
2023/05/04 10:03:46;;;;;;;1.40;1.23;;;23.90;67.40;;;;;;6166872;23;20024;-77
2023/05/04 10:06:13;;;;;;;1.73;1.25;;;24.00;67.00;;;;;;6142175;23;20005;-77
2023/05/04 10:08:41;;;;;;;1.70;1.45;;;24.20;66.90;;;;;;6139175;23;20009;-77
2023/05/04 10:11:07;;;;;;;1.73;1.27;;;24.30;66.20;;;;;;6165493;23;20009;-77
2023/05/04 10:13:36;;;;;;;1.30;1.10;;;24.40;65.50;;;;;;6167347;23;20002;-76
2023/05/04 10:16:39;;;;;;;3.17;1.38;;;24.60;65.70;;;;;;6135973;23;20005;-78
2023/05/04 10:19:21;;;;;;;2.42;1.42;;;24.60;65.00;;;;;;6164161;23;20005;-76
2023/05/04 10:22:13;;;;;;;2.60;1.83;;;24.70;63.80;;;;;;6137961;23;20010;-78
2023/05/04 10:25:06;;;;;;;2.45;1.40;;;24.80;62.40;;;;;;6141057;23;20044;-76
2023/05/04 10:28:09;;;;;;;1.33;1.20;;;24.80;63.90;;;;;;6138781;23;20005;-77
2023/05/04 10:30:39;;;;;;;2.17;1.98;;;24.90;63.60;;;;;;6137094;23;20002;-78
2023/05/04 10:33:25;;;;;;;2.33;1.50;;;25.00;62.00;;;;;;6164672;23;20483;-77
2023/05/04 10:35:53;;;;;;;1.23;1.10;;;25.10;62.40;;;;;;6104565;23;20049;-77
2023/05/04 10:38:30;;;;;;;1.38;1.25;;;25.20;62.10;;;;;;6105278;23;20030;-78
2023/05/04 10:40:57;;;;;;;1.73;1.40;;;25.20;61.00;;;;;;6103884;23;20378;-78
2023/05/04 10:43:25;;;;;;;2.97;1.30;;;25.20;60.80;;;;;;6078692;23;20002;-78
2023/05/04 10:46:20;;;;;;;2.25;1.50;;;25.20;61.50;;;;;;6077222;23;20038;-77
2023/05/04 10:49:13;;;;;;;1.20;1.10;;;25.30;61.30;;;;;;6103811;23;20002;-78
2023/05/04 10:51:48;;;;;;;2.20;1.30;;;25.50;61.70;;;;;;6081668;23;20007;-79
2023/05/04 10:54:28;;;;;;;1.05;0.93;;;25.60;61.10;;;;;;6107450;23;20035;-80
2023/05/04 10:57:05;;;;;;;;;;;25.70;60.00;;;;;;6086994;23;20007;-78
2023/05/04 10:59:40;;;;;;;0.80;0.77;;;25.80;60.40;;;;;;6085738;23;19906;-79
2023/05/04 11:02:40;;;;;;;1.70;1.20;;;25.90;60.30;;;;;;6110265;23;20026;-79
2023/05/04 11:05:16;;;;;;;1.75;1.30;;;26.10;59.50;;;;;;6086212;23;20014;-79
2023/05/04 11:07:44;;;;;;;1.38;1.25;;;26.20;58.90;;;;;;6108989;23;20003;-79
2023/05/04 11:10:25;;;;;;;2.40;1.40;;;26.30;58.50;;;;;;6082334;23;20006;-79
2023/05/04 11:13:01;;;;;;;11.27;1.55;;;26.30;57.80;;;;;;6108919;23;20002;-79
2023/05/04 11:22:14;;;;;;;4.00;1.70;;;26.60;58.00;;;;;;6104771;23;20091;-78
2023/05/04 11:24:42;;;;;;;2.05;1.75;;;26.60;58.60;;;;;;6112163;23;20009;-79
2023/05/04 11:27:41;;;;;;;2.22;1.80;;;26.60;58.50;;;;;;6109312;23;20030;-83
2023/05/04 11:30:27;;;;;;;;;;;;;;;;;;;;;
2023/05/04 11:33:45;;;;;;;4.88;1.60;;;27.00;58.40;;;;;;6110887;23;20026;-80
2023/05/04 11:36:24;;;;;;;1.70;1.40;;;27.20;56.00;;;;;;6097468;23;20053;-79
2023/05/04 11:38:59;;;;;;;2.40;1.60;;;27.40;55.50;;;;;;6141859;23;20025;-79
2023/05/04 11:41:32;;;;;;;1.80;1.27;;;27.50;54.60;;;;;;6168815;23;20006;-79
2023/05/04 11:44:00;;;;;;;1.70;1.40;;;27.60;54.10;;;;;;6140421;23;20006;-80
2023/05/04 11:46:34;;;;;;;2.42;1.65;;;27.80;54.20;;;;;;6166956;23;20002;-79
2023/05/04 11:49:04;;;;;;;3.05;2.17;;;28.00;54.00;;;;;;6141625;23;20064;-80
2023/05/04 11:51:34;;;;;;;;;;;28.10;53.50;;;;;;6142573;23;20036;-80
2023/05/04 11:54:00;;;;;;;2.63;1.92;;;28.30;53.60;;;;;;6141677;23;19916;-84
2023/05/04 11:56:27;;;;;;;1.83;1.70;;;28.40;53.90;;;;;;6142736;23;20010;-81
2023/05/04 11:59:06;;;;;;;1.60;1.27;;;28.60;53.00;;;;;;6139640;23;20097;-80
2023/05/04 12:01:35;;;;;;;1.33;1.20;;;28.80;52.40;;;;;;6137834;23;20416;-80
2023/05/04 12:04:17;;;;;;;1.83;1.55;;;28.90;51.30;;;;;;6137613;23;20055;-80
2023/05/04 12:06:48;;;;;;;2.10;1.90;;;29.00;50.10;;;;;;6139786;23;20012;-80
2023/05/04 12:09:29;;;;;;;3.90;2.33;;;29.10;50.00;;;;;;6166682;23;20001;-80
2023/05/04 12:12:01;;;;;;;4.13;2.20;;;29.30;49.90;;;;;;6140899;23;20499;-80
2023/05/04 12:14:35;;;;;;;2.30;1.70;;;29.30;49.50;;;;;;6166842;23;20002;-78
2023/05/04 12:17:04;;;;;;;2.72;2.10;;;29.40;49.80;;;;;;6140557;23;20016;-79
2023/05/04 12:19:38;;;;;;;1.98;1.55;;;29.40;49.60;;;;;;6141126;23;20060;-79
2023/05/04 12:22:09;;;;;;;2.42;1.50;;;29.50;49.30;;;;;;6143303;23;20001;-85
2023/05/04 12:25:03;;;;;;;2.20;1.85;;;29.50;49.00;;;;;;6171481;23;20073;-84
2023/05/04 12:27:30;;;;;;;2.42;1.80;;;29.70;49.30;;;;;;6171337;23;20029;-84
2023/05/04 12:30:25;;;;;;;3.03;1.90;;;29.80;49.40;;;;;;6138234;23;20009;-79
2023/05/04 12:33:04;;;;;;;4.35;2.03;;;30.00;48.70;;;;;;6134106;23;20005;-78
2023/05/04 12:35:48;;;;;;;3.47;2.03;;;30.10;48.10;;;;;;6138136;23;20018;-78
2023/05/04 12:41:37;;;;;;;;;;;30.30;47.10;;;;;;6072961;23;20119;-81
2023/05/04 12:44:46;;;;;;;3.10;1.85;;;30.30;46.50;;;;;;6058714;23;20307;-78
2023/05/04 12:47:49;;;;;;;4.38;1.45;;;30.30;46.10;;;;;;6128012;23;20309;-82
2023/05/04 12:50:28;;;;;;;2.88;2.30;;;30.20;46.70;;;;;;6137125;23;20036;-84
2023/05/04 12:53:28;;;;;;;6.20;2.20;;;30.20;45.80;;;;;;6164295;23;20009;-78
2023/05/04 12:56:02;;;;;;;2.45;1.55;;;30.30;46.30;;;;;;6127664;23;20052;-83
2023/05/04 12:59:01;;;;;;;4.15;1.50;;;30.40;46.40;;;;;;6165330;23;20002;-83
2023/05/04 13:01:34;;;;;;;1.83;1.40;;;30.50;45.70;;;;;;6165595;23;19997;-83
2023/05/04 13:04:03;;;;;;;2.85;2.30;;;30.60;45.60;;;;;;6141222;23;20012;-83
2023/05/04 13:06:32;;;;;;;1.40;1.20;;;30.60;44.80;;;;;;6136758;23;20026;-83
2023/05/04 13:09:08;;;;;;;3.58;1.73;;;30.60;45.30;;;;;;6139081;23;20005;-84